Huvudsida
METAR-TAF:

METAR-TAF

Flygplatser :

Banja Lukas internationella flygplats

Banja Luka, Bosnien och Hercegovina

latitud: 44-47N, longitud: 017-13E, höjd: 156 m

Aktuellt väderrapport

Denna rapport gjordes för 28 minuter sedan, klockan 23:30 UTC
Vind 4 kt från syd/sydost
Temperatur 8°C
Fuktighet 93%
Tryck 1009 hPa
Sikt 10 km eller mer
Inga moln under 1 500 m eller inga cumulonimbus

METAR: LQBK 152330Z 16004KT CAVOK 08/07 Q1009 NOSIG

Tid: 00:58 (23:58 UTC)

Väderprognos

Denna rapport gjordes för 58 minuter sedan, klockan 23:00 UTC
Prognos gäller från 16 kl. 00 UTC till 16 kl. 24 UTC
Vind 5 kt från ost
Sikt 10 km eller mer
Spridda moln på en höjd av 4000 ft
Sannolikhet 30% :
Temporärt
från 16 kl. 03 UTC till 16 kl. 06 UTC
Sikt: 3000 m
fuktdis
Sannolikhet 40% :
Temporärt
från 16 kl. 14 UTC till 16 kl. 24 UTC
Vind 10 kt från syd/sydost

TAF: LQBK 152300Z 1600/1624 10005KT 9999 SCT040 TX16/1613Z TN07/1604Z PROB30 TEMPO 1603/1606 3000 BR PROB40 TEMPO 1614/1624 16010KT

Aktuella väderrapporter och prognoser från 4000 flygplatser (METAR- och TAF-rapporter).

De tillgängliga stationerna syns som gula och röda prickar på kartan.

För musen över prickarna för att se namnen på stationerna.

Klicka sedan för att få väderrapporter och prognoser.

För att ändra kartan: Klicka på de gröna knapparna med ett svart kors på för att zooma in; den gröna knappen med ett streck på för att zooma ut; eller på de gröna pilarna för angränsande kartor.


METAR-TAF: